Αναφορές πλησιέστερων αεροδρομίων

 

LGSO - Ermoupoli, Syros, GR
Distance from station: ΝΑ 3km
Ενημερώθηκε: 21/07/2024 21:50
Αίθριος
Αίθριος
 Ανεμος από varies
Άνεμος: varies 4 km/h
Θερμοκρασία: 27°C
Heat Index: 28°C
Σημείο Δρόσου: 18°C
Υγρασία: 58%
Βαρόμετρο: 1007 hPa
Περίληψη: Αίθριος
Visibility: greater than 10 km
2024/07/21 21:50 LGSO 212150Z VRB02KT CAVOK 27/18 Q1007
LGAV - Athens, GR
Distance from station: Β 104km
Ενημερώθηκε: 21/07/2024 22:20
Αίθριος
Αίθριος
 Ανεμος από ΔΝΔ
Άνεμος: ΔΝΔ 6 km/h
Θερμοκρασία: 28°C
Heat Index: 28°C
Σημείο Δρόσου: 15°C
Υγρασία: 45%
Βαρόμετρο: 1008 hPa
Περίληψη: Αίθριος
Visibility: greater than 10 km
2024/07/21 22:20 LGAV 212220Z 24003KT CAVOK 28/15 Q1008 NOSIG